createdAt,value
2022-09-26T00:01:07.839Z,2.33
2022-09-26T00:03:37.086Z,2.28
2022-09-26T00:06:06.599Z,2.28
2022-09-26T00:08:35.283Z,2.50
2022-09-26T00:11:05.067Z,2.30
2022-09-26T00:13:34.350Z,2.30
2022-09-26T00:16:02.626Z,2.15
2022-09-26T00:18:30.226Z,1.90
2022-09-26T00:21:05.791Z,2.30
2022-09-26T00:23:33.439Z,2.40
2022-09-26T00:26:01.139Z,2.25
2022-09-26T00:28:29.584Z,2.60
2022-09-26T00:30:57.690Z,1.98
2022-09-26T00:33:25.847Z,2.00
2022-09-26T00:35:55.086Z,2.28
2022-09-26T00:38:24.423Z,2.00
2022-09-26T00:40:52.675Z,2.10
2022-09-26T00:43:29.351Z,2.45
2022-09-26T00:46:00.333Z,1.95
2022-09-26T00:48:29.181Z,2.47
2022-09-26T00:50:56.792Z,2.25
2022-09-26T00:53:28.915Z,2.20
2022-09-26T00:56:00.632Z,2.15
2022-09-26T00:58:31.933Z,1.80
2022-09-26T01:01:00.969Z,1.85
2022-09-26T01:03:31.602Z,2.13
2022-09-26T01:06:00.161Z,1.95
2022-09-26T01:08:34.023Z,1.90
2022-09-26T01:11:03.175Z,2.30
2022-09-26T01:13:32.728Z,1.92
2022-09-26T01:16:00.409Z,2.28
2022-09-26T01:18:28.247Z,2.45
2022-09-26T01:21:03.351Z,2.05
2022-09-26T01:24:03.806Z,1.75
2022-09-26T01:26:53.186Z,1.85
2022-09-26T01:29:39.000Z,1.90
2022-09-26T01:32:40.447Z,2.20
2022-09-26T01:35:18.040Z,2.33
2022-09-26T01:37:59.414Z,1.85
2022-09-26T01:40:38.105Z,2.42
2022-09-26T01:43:14.707Z,1.83
2022-09-26T01:45:50.799Z,2.30
2022-09-26T01:48:25.312Z,1.63
2022-09-26T01:50:56.669Z,1.88
2022-09-26T01:53:29.077Z,2.05
2022-09-26T01:56:05.001Z,2.10
2022-09-26T01:58:37.019Z,1.92
2022-09-26T02:01:11.191Z,2.25
2022-09-26T02:03:44.970Z,1.90
2022-09-26T02:06:17.729Z,2.10
2022-09-26T02:08:49.874Z,2.00
2022-09-26T02:11:20.201Z,2.10
2022-09-26T02:13:52.937Z,2.10
2022-09-26T02:16:24.236Z,2.25
2022-09-26T02:18:56.839Z,2.13
2022-09-26T02:21:25.213Z,2.33
2022-09-26T02:23:54.981Z,2.90
2022-09-26T02:26:24.286Z,2.25
2022-09-26T02:28:52.559Z,2.50
2022-09-26T02:31:25.063Z,2.42
2022-09-26T02:33:55.110Z,2.50
2022-09-26T02:36:25.823Z,2.55
2022-09-26T02:38:54.067Z,2.30
2022-09-26T02:41:49.426Z,1.88
2022-09-26T02:44:31.253Z,2.15
2022-09-26T02:47:17.749Z,2.50
2022-09-26T02:50:08.366Z,2.15
2022-09-26T02:52:45.858Z,2.40
2022-09-26T02:55:22.163Z,1.80
2022-09-26T02:58:03.859Z,1.88
2022-09-26T03:00:40.726Z,1.85
2022-09-26T03:03:18.377Z,1.60
2022-09-26T03:05:50.007Z,1.65
2022-09-26T03:08:22.583Z,2.08
2022-09-26T03:10:51.788Z,2.08
2022-09-26T03:13:20.224Z,2.13
2022-09-26T03:15:51.825Z,2.40
2022-09-26T03:18:24.519Z,1.98
2022-09-26T03:20:54.871Z,2.13
2022-09-26T03:23:24.162Z,2.00
2022-09-26T03:26:00.904Z,2.08
2022-09-26T03:28:33.997Z,2.30
2022-09-26T03:31:04.867Z,2.63
2022-09-26T03:33:43.577Z,2.30
2022-09-26T03:36:12.769Z,1.80
2022-09-26T03:38:40.501Z,1.95
2022-09-26T03:41:26.462Z,2.08
2022-09-26T03:44:08.236Z,2.58
2022-09-26T03:46:54.920Z,2.13
2022-09-26T03:49:22.615Z,2.10
2022-09-26T03:51:51.709Z,1.85
2022-09-26T03:54:19.489Z,2.17
2022-09-26T03:56:48.528Z,1.95
2022-09-26T03:59:17.804Z,2.22
2022-09-26T04:01:46.648Z,2.75
2022-09-26T04:04:16.328Z,1.88
2022-09-26T04:06:45.152Z,2.00
2022-09-26T04:09:17.566Z,1.90
2022-09-26T04:11:51.831Z,1.95
2022-09-26T04:14:19.919Z,2.50
2022-09-26T04:16:52.089Z,2.30
2022-09-26T04:19:41.058Z,1.77
2022-09-26T04:22:09.063Z,2.00
2022-09-26T04:24:38.232Z,2.13
2022-09-26T04:27:07.281Z,1.90
2022-09-26T04:29:35.110Z,2.00
2022-09-26T04:32:22.996Z,2.35
2022-09-26T04:35:14.063Z,2.17
2022-09-26T04:37:41.908Z,2.42
2022-09-26T04:40:11.772Z,2.20
2022-09-26T04:42:47.753Z,2.47
2022-09-26T04:45:16.688Z,2.03
2022-09-26T04:47:44.688Z,2.10
2022-09-26T04:50:32.368Z,2.13
2022-09-26T04:53:09.019Z,2.00
2022-09-26T04:56:12.466Z,2.53
2022-09-26T04:58:42.103Z,2.15
2022-09-26T05:01:11.967Z,2.00
2022-09-26T05:03:55.772Z,2.08
2022-09-26T05:06:23.514Z,2.10
2022-09-26T05:08:51.166Z,2.25
2022-09-26T05:11:25.973Z,1.63
2022-09-26T05:13:54.205Z,2.65
2022-09-26T05:16:23.943Z,2.30
2022-09-26T05:18:53.105Z,2.38
2022-09-26T05:21:21.248Z,1.90
2022-09-26T05:24:06.599Z,2.50
2022-09-26T05:26:41.369Z,2.28
2022-09-26T05:29:09.538Z,2.55
2022-09-26T05:32:03.274Z,2.72
2022-09-26T05:34:36.044Z,2.15
2022-09-26T05:37:04.986Z,1.90
2022-09-26T05:39:51.086Z,2.30
2022-09-26T05:42:20.128Z,2.90
2022-09-26T05:44:48.931Z,1.77
2022-09-26T05:47:17.996Z,2.08
2022-09-26T05:49:46.065Z,1.90
2022-09-26T05:52:16.973Z,2.70
2022-09-26T05:54:44.722Z,1.90
2022-09-26T05:57:52.889Z,1.73
2022-09-26T06:00:22.641Z,1.63
2022-09-26T06:02:56.381Z,2.13
2022-09-26T06:05:33.653Z,1.73
2022-09-26T06:08:18.242Z,1.95
2022-09-26T06:10:50.457Z,1.55
2022-09-26T06:13:21.377Z,2.03
2022-09-26T06:15:50.231Z,2.35
2022-09-26T06:18:18.263Z,2.00
2022-09-26T06:20:45.994Z,2.30
2022-09-26T06:23:14.389Z,2.03
2022-09-26T06:25:44.828Z,2.38
2022-09-26T06:28:13.471Z,2.22
2022-09-26T06:30:42.393Z,2.75
2022-09-26T06:33:13.334Z,2.40
2022-09-26T06:36:03.600Z,2.83
2022-09-26T06:38:35.561Z,2.65
2022-09-26T06:41:07.747Z,2.63
2022-09-26T06:43:35.847Z,2.38
2022-09-26T06:46:11.128Z,2.60
2022-09-26T06:48:50.728Z,2.60
2022-09-26T06:51:21.343Z,2.55
2022-09-26T06:53:49.103Z,2.35
2022-09-26T06:56:20.898Z,2.55
2022-09-26T06:58:49.849Z,2.47
2022-09-26T07:01:20.116Z,2.30
2022-09-26T07:04:00.762Z,2.33
2022-09-26T07:06:54.748Z,2.63
2022-09-26T07:09:22.459Z,2.45
2022-09-26T07:12:16.936Z,2.65
2022-09-26T07:14:47.117Z,2.33
2022-09-26T07:17:26.014Z,1.95
2022-09-26T07:20:19.438Z,2.35
2022-09-26T07:23:05.077Z,2.03
2022-09-26T07:25:33.697Z,2.40
2022-09-26T07:28:03.209Z,2.30
2022-09-26T07:30:43.705Z,2.17
2022-09-26T07:33:33.016Z,2.60
2022-09-26T07:36:06.572Z,2.55
2022-09-26T07:38:34.546Z,2.28
2022-09-26T07:41:03.885Z,2.22
2022-09-26T07:44:19.343Z,2.55
2022-09-26T07:46:39.494Z,2.15
2022-09-26T07:49:26.184Z,1.92
2022-09-26T07:51:55.764Z,2.33
2022-09-26T07:54:27.212Z,2.35
2022-09-26T07:57:32.993Z,2.50
2022-09-26T08:00:21.434Z,2.40
2022-09-26T08:03:05.050Z,2.30
2022-09-26T08:05:36.154Z,2.35
2022-09-26T08:08:04.894Z,2.65
2022-09-26T08:10:51.238Z,3.05
2022-09-26T08:13:46.266Z,3.08
2022-09-26T08:16:30.792Z,3.70
2022-09-26T08:19:02.517Z,2.85
2022-09-26T08:21:31.644Z,2.63
2022-09-26T08:23:59.986Z,3.10
2022-09-26T08:26:56.363Z,3.30
2022-09-26T08:29:28.185Z,3.60
2022-09-26T08:31:56.353Z,3.40
2022-09-26T08:34:25.696Z,4.20
2022-09-26T08:37:34.141Z,2.70
2022-09-26T08:40:32.278Z,3.03
2022-09-26T08:43:55.274Z,3.42
2022-09-26T08:46:59.221Z,3.50
2022-09-26T08:50:12.073Z,4.05
2022-09-26T08:52:46.672Z,4.03
2022-09-26T08:55:17.582Z,4.05
2022-09-26T08:57:49.233Z,3.90
2022-09-26T09:00:21.210Z,3.70
2022-09-26T09:03:22.547Z,3.53
2022-09-26T09:05:54.159Z,4.20
2022-09-26T09:08:25.916Z,4.38
2022-09-26T09:11:25.882Z,3.97
2022-09-26T09:14:10.323Z,3.88
2022-09-26T09:17:09.718Z,3.30
2022-09-26T09:20:03.860Z,4.68
2022-09-26T09:22:59.255Z,3.85
2022-09-26T09:25:33.884Z,3.67
2022-09-26T09:28:14.094Z,4.03
2022-09-26T09:30:45.128Z,3.55
2022-09-26T09:33:37.935Z,4.30
2022-09-26T09:36:43.026Z,3.83
2022-09-26T09:39:29.056Z,3.25
2022-09-26T09:42:17.529Z,3.53
2022-09-26T09:44:48.927Z,4.25
2022-09-26T09:47:19.337Z,3.88
2022-09-26T09:49:50.192Z,3.75
2022-09-26T09:52:31.030Z,4.38
2022-09-26T09:55:14.065Z,3.00
2022-09-26T09:57:57.029Z,3.00
2022-09-26T10:00:27.580Z,2.85
2022-09-26T10:03:26.541Z,2.63
2022-09-26T10:05:59.606Z,2.25
2022-09-26T10:08:36.641Z,2.60
2022-09-26T10:11:29.393Z,2.35
2022-09-26T10:14:03.194Z,2.42
2022-09-26T10:17:29.793Z,2.55
2022-09-26T10:20:36.311Z,2.70
2022-09-26T10:23:13.117Z,2.42
2022-09-26T10:25:49.306Z,2.25
2022-09-26T10:28:30.038Z,2.38
2022-09-26T10:31:07.661Z,2.38
2022-09-26T10:33:59.279Z,2.40
2022-09-26T10:36:31.937Z,2.70
2022-09-26T10:39:18.915Z,1.95
2022-09-26T10:41:50.931Z,2.38
2022-09-26T10:44:28.155Z,1.90
2022-09-26T10:47:15.825Z,2.30
2022-09-26T10:50:08.213Z,2.00
2022-09-26T10:52:58.065Z,2.10
2022-09-26T10:55:32.254Z,1.80
2022-09-26T10:58:07.913Z,2.25
2022-09-26T11:00:42.598Z,2.10
2022-09-26T11:03:40.823Z,2.00
2022-09-26T11:06:32.879Z,2.40
2022-09-26T11:09:21.334Z,2.30
2022-09-26T11:12:25.551Z,2.50
2022-09-26T11:14:58.793Z,2.30
2022-09-26T11:17:43.288Z,2.40
2022-09-26T11:20:17.476Z,2.58
2022-09-26T11:22:52.012Z,2.42
2022-09-26T11:25:25.493Z,2.50
2022-09-26T11:27:58.752Z,2.65
2022-09-26T11:30:48.250Z,2.25
2022-09-26T11:33:20.212Z,2.30
2022-09-26T11:36:25.677Z,2.55
2022-09-26T11:38:57.651Z,2.47
2022-09-26T11:41:38.304Z,3.05
2022-09-26T11:44:27.699Z,3.40
2022-09-26T11:47:47.944Z,2.80
2022-09-26T11:50:35.534Z,3.33
2022-09-26T11:53:42.997Z,3.05
2022-09-26T11:56:49.460Z,3.38
2022-09-26T11:59:39.216Z,3.20
2022-09-26T12:02:23.633Z,3.60
2022-09-26T12:05:02.839Z,3.60
2022-09-26T12:07:40.184Z,3.53
2022-09-26T12:10:20.547Z,3.35
2022-09-26T12:13:06.754Z,2.85
2022-09-26T12:15:40.072Z,3.90
2022-09-26T12:18:16.684Z,4.13
2022-09-26T12:20:57.147Z,3.60
2022-09-26T12:23:31.607Z,3.65
2022-09-26T12:26:10.563Z,3.85
2022-09-26T12:28:53.275Z,3.15
2022-09-26T12:31:31.677Z,2.80
2022-09-26T12:34:19.981Z,3.35
2022-09-26T12:37:02.262Z,2.72
2022-09-26T12:39:46.495Z,3.30
2022-09-26T12:42:30.454Z,3.30
2022-09-26T12:45:11.893Z,3.17
2022-09-26T12:48:10.351Z,2.95
2022-09-26T12:50:46.432Z,3.17
2022-09-26T12:53:31.561Z,2.85
2022-09-26T12:56:07.425Z,2.60
2022-09-26T12:58:51.019Z,2.80
2022-09-26T13:01:35.948Z,3.00
2022-09-26T13:04:22.605Z,3.30
2022-09-26T13:07:25.093Z,2.90
2022-09-26T13:10:08.089Z,2.50
2022-09-26T13:12:52.822Z,2.70
2022-09-26T13:15:27.137Z,2.40
2022-09-26T13:17:59.936Z,2.80
2022-09-26T13:20:33.031Z,2.50
2022-09-26T13:23:06.850Z,2.50
2022-09-26T13:25:47.181Z,2.33
2022-09-26T13:28:21.356Z,2.25
2022-09-26T13:30:54.669Z,2.40
2022-09-26T13:33:26.350Z,2.33
2022-09-26T13:35:56.282Z,2.33
2022-09-26T13:38:39.097Z,2.10
2022-09-26T13:41:22.046Z,2.20
2022-09-26T13:44:04.801Z,2.22
2022-09-26T13:46:41.156Z,2.70
2022-09-26T13:49:26.973Z,2.50
2022-09-26T13:52:08.246Z,2.90
2022-09-26T13:54:53.994Z,2.25
2022-09-26T13:57:32.369Z,2.78
2022-09-26T14:00:02.000Z,2.38
2022-09-26T14:02:34.086Z,2.70
2022-09-26T14:05:44.857Z,2.50
2022-09-26T14:08:47.976Z,2.83
2022-09-26T14:11:30.377Z,2.78
2022-09-26T14:14:39.577Z,2.47
2022-09-26T14:18:03.339Z,2.60
2022-09-26T14:20:36.237Z,2.42
2022-09-26T14:23:04.288Z,2.60
2022-09-26T14:26:05.086Z,2.28
2022-09-26T14:28:34.471Z,2.63
2022-09-26T14:31:18.478Z,2.58
2022-09-26T14:33:47.129Z,3.03
2022-09-26T14:36:26.014Z,3.00
2022-09-26T14:38:55.455Z,2.90
2022-09-26T14:41:27.973Z,3.30
2022-09-26T14:44:02.354Z,2.90
2022-09-26T14:46:33.122Z,3.10
2022-09-26T14:49:05.303Z,2.85
2022-09-26T14:51:38.476Z,2.92
2022-09-26T14:54:15.032Z,3.10
2022-09-26T14:56:46.493Z,2.65
2022-09-26T14:59:40.521Z,2.88
2022-09-26T15:02:34.438Z,2.53
2022-09-26T15:05:20.126Z,2.55
2022-09-26T15:07:51.157Z,2.72
2022-09-26T15:10:26.702Z,2.40
2022-09-26T15:13:02.877Z,2.75
2022-09-26T15:15:42.536Z,2.85
2022-09-26T15:18:19.451Z,2.90
2022-09-26T15:20:51.385Z,2.50
2022-09-26T15:23:26.199Z,2.40
2022-09-26T15:25:56.268Z,2.22
2022-09-26T15:28:24.936Z,2.95
2022-09-26T15:31:24.355Z,2.75
2022-09-26T15:33:55.562Z,2.20
2022-09-26T15:36:23.434Z,2.63
2022-09-26T15:38:53.050Z,2.60
2022-09-26T15:41:34.876Z,2.33
2022-09-26T15:44:04.091Z,2.47
2022-09-26T15:46:32.568Z,2.35
2022-09-26T15:49:00.377Z,2.20
2022-09-26T15:51:38.441Z,2.72
2022-09-26T15:54:12.283Z,2.60
2022-09-26T15:56:44.316Z,2.40
2022-09-26T15:59:18.150Z,2.45
2022-09-26T16:01:48.724Z,2.22
2022-09-26T16:04:22.252Z,2.17
2022-09-26T16:06:57.166Z,2.20
2022-09-26T16:09:32.445Z,2.13
2022-09-26T16:12:02.725Z,2.47
2022-09-26T16:14:40.342Z,2.33
2022-09-26T16:17:18.506Z,1.90
2022-09-26T16:19:48.177Z,2.25
2022-09-26T16:22:36.298Z,2.00
2022-09-26T16:28:22.819Z,1.80
2022-09-26T16:31:15.778Z,1.92
2022-09-26T16:33:51.253Z,1.80
2022-09-26T16:36:21.154Z,2.00
2022-09-26T16:39:00.351Z,1.95
2022-09-26T16:44:30.366Z,1.85
2022-09-26T16:47:03.646Z,1.65
2022-09-26T16:49:39.839Z,1.85
2022-09-26T16:52:22.687Z,2.75
2022-09-26T16:54:51.764Z,2.10
2022-09-26T16:57:22.745Z,1.85
2022-09-26T16:59:53.424Z,1.98
2022-09-26T17:02:21.227Z,1.77
2022-09-26T17:04:50.061Z,1.80
2022-09-26T17:07:17.865Z,1.67
2022-09-26T17:09:45.427Z,1.83
2022-09-26T17:12:18.307Z,1.77
2022-09-26T17:14:51.513Z,2.10
2022-09-26T17:17:25.453Z,1.77
2022-09-26T17:19:59.080Z,1.67
2022-09-26T17:22:27.730Z,1.85
2022-09-26T17:24:55.678Z,1.80
2022-09-26T17:27:27.020Z,1.90
2022-09-26T17:29:59.613Z,1.27
2022-09-26T17:32:33.254Z,2.58
2022-09-26T17:35:03.799Z,1.98
2022-09-26T17:37:31.602Z,2.08
2022-09-26T17:39:59.239Z,1.42
2022-09-26T17:42:26.853Z,2.05
2022-09-26T17:44:54.602Z,2.33
2022-09-26T17:47:23.143Z,1.90
2022-09-26T17:49:56.279Z,2.20
2022-09-26T17:52:28.863Z,1.85
2022-09-26T17:54:59.784Z,2.20
2022-09-26T17:57:30.177Z,1.67
2022-09-26T17:59:58.613Z,2.15
2022-09-26T18:02:34.456Z,2.00
2022-09-26T18:05:09.143Z,2.20
2022-09-26T18:07:40.999Z,2.00
2022-09-26T18:10:19.667Z,2.10
2022-09-26T18:12:48.316Z,2.65
2022-09-26T18:15:20.870Z,2.08
2022-09-26T18:17:49.714Z,2.13
2022-09-26T18:20:20.106Z,2.28
2022-09-26T18:22:49.188Z,2.15
2022-09-26T18:25:21.793Z,1.80
2022-09-26T18:27:51.896Z,3.03
2022-09-26T18:30:20.998Z,2.20
2022-09-26T18:32:52.927Z,1.90
2022-09-26T18:35:24.830Z,1.90
2022-09-26T18:37:55.228Z,1.50
2022-09-26T18:40:24.506Z,1.73
2022-09-26T18:42:54.762Z,2.05
2022-09-26T18:45:28.479Z,2.08
2022-09-26T18:47:57.002Z,2.08
2022-09-26T18:50:31.720Z,2.28
2022-09-26T18:52:59.286Z,2.22
2022-09-26T18:55:45.219Z,1.77
2022-09-26T18:58:27.801Z,2.15
2022-09-26T19:00:57.855Z,1.80
2022-09-26T19:03:28.383Z,1.80
2022-09-26T19:06:03.352Z,2.30
2022-09-26T19:08:36.408Z,1.77
2022-09-26T19:11:12.850Z,1.95
2022-09-26T19:13:40.647Z,2.10
2022-09-26T19:16:08.783Z,2.20
2022-09-26T19:18:36.615Z,2.25
2022-09-26T19:21:13.664Z,2.50
2022-09-26T19:23:41.446Z,3.42
2022-09-26T19:26:18.619Z,2.50
2022-09-26T19:28:46.342Z,2.40
2022-09-26T19:31:14.062Z,2.53
2022-09-26T19:33:44.915Z,2.13
2022-09-26T19:36:16.950Z,2.88
2022-09-26T19:38:44.686Z,2.15
2022-09-26T19:41:12.627Z,3.00
2022-09-26T19:43:40.336Z,2.45
2022-09-26T19:46:13.091Z,2.58
2022-09-26T19:48:42.452Z,2.47
2022-09-26T19:51:15.577Z,2.65
2022-09-26T19:53:43.343Z,2.55
2022-09-26T19:56:11.188Z,2.35
2022-09-26T19:58:39.230Z,2.70
2022-09-26T20:01:16.416Z,2.67
2022-09-26T20:03:44.891Z,3.05
2022-09-26T20:06:16.138Z,2.72
2022-09-26T20:08:44.110Z,2.17
2022-09-26T20:11:13.482Z,2.63
2022-09-26T20:13:58.849Z,3.00
2022-09-26T20:16:26.823Z,3.05
2022-09-26T20:18:55.735Z,3.20
2022-09-26T20:21:28.810Z,2.90
2022-09-26T20:23:58.022Z,2.40
2022-09-26T20:26:26.780Z,2.72
2022-09-26T20:28:54.364Z,2.83
2022-09-26T20:31:24.610Z,2.40
2022-09-26T20:33:56.967Z,2.55
2022-09-26T20:36:32.534Z,2.40
2022-09-26T20:39:12.883Z,2.33
2022-09-26T20:41:45.248Z,2.60
2022-09-26T20:44:27.855Z,2.50
2022-09-26T20:47:00.686Z,2.42
2022-09-26T20:49:35.893Z,2.80
2022-09-26T20:52:08.835Z,2.50
2022-09-26T20:54:36.767Z,2.03
2022-09-26T20:57:04.669Z,2.40
2022-09-26T20:59:36.152Z,2.40
2022-09-26T21:02:21.702Z,2.17
2022-09-26T21:04:51.838Z,1.92
2022-09-26T21:07:21.519Z,1.80
2022-09-26T21:09:50.334Z,2.20
2022-09-26T21:12:19.021Z,2.00
2022-09-26T21:14:46.774Z,2.42
2022-09-26T21:17:19.964Z,2.25
2022-09-26T21:19:48.371Z,1.95
2022-09-26T21:22:57.946Z,1.60
2022-09-26T21:25:29.067Z,2.10
2022-09-26T21:28:02.938Z,2.25
2022-09-26T21:30:31.667Z,1.80
2022-09-26T21:33:00.863Z,2.28
2022-09-26T21:35:30.557Z,2.30
2022-09-26T21:38:01.881Z,2.00
2022-09-26T21:40:32.510Z,2.05
2022-09-26T21:43:11.235Z,1.80
2022-09-26T21:45:41.418Z,2.00
2022-09-26T21:48:12.299Z,2.10
2022-09-26T21:50:43.139Z,2.00
2022-09-26T21:53:17.734Z,1.85
2022-09-26T21:55:49.876Z,2.50
2022-09-26T21:58:21.144Z,1.50
2022-09-26T22:00:49.074Z,2.22
2022-09-26T22:03:16.732Z,2.33
2022-09-26T22:05:44.732Z,2.00
2022-09-26T22:08:13.774Z,2.17
2022-09-26T22:10:41.437Z,2.17
2022-09-26T22:13:09.049Z,2.20
2022-09-26T22:15:36.949Z,1.98
2022-09-26T22:18:04.888Z,2.08
2022-09-26T22:20:32.622Z,1.92
2022-09-26T22:23:03.453Z,2.20
2022-09-26T22:25:37.686Z,1.90
2022-09-26T22:28:09.166Z,2.10
2022-09-26T22:30:40.308Z,2.00
2022-09-26T22:33:08.320Z,2.17
2022-09-26T22:35:36.011Z,1.80
2022-09-26T22:38:03.855Z,1.75
2022-09-26T22:40:31.746Z,2.30
2022-09-26T22:43:00.782Z,1.90
2022-09-26T22:45:28.408Z,1.80
2022-09-26T22:47:57.283Z,2.58
2022-09-26T22:50:25.039Z,1.90
2022-09-26T22:52:52.751Z,1.77
2022-09-26T22:55:20.621Z,1.85
2022-09-26T22:57:50.945Z,2.10
2022-09-26T23:00:19.867Z,1.75
2022-09-26T23:02:47.487Z,1.83
2022-09-26T23:05:15.194Z,2.08
2022-09-26T23:07:42.972Z,2.22
2022-09-26T23:10:11.467Z,2.22
2022-09-26T23:12:40.287Z,2.20
2022-09-26T23:15:09.491Z,1.80
2022-09-26T23:17:39.109Z,1.73
2022-09-26T23:20:08.715Z,1.63
2022-09-26T23:22:36.517Z,1.95
2022-09-26T23:25:04.317Z,2.33
2022-09-26T23:27:32.174Z,2.05
2022-09-26T23:29:59.886Z,1.90
2022-09-26T23:32:27.896Z,2.28
2022-09-26T23:34:56.847Z,1.90
2022-09-26T23:37:24.743Z,1.80
2022-09-26T23:39:55.440Z,1.58
2022-09-26T23:42:23.091Z,1.67
2022-09-26T23:44:51.023Z,1.80
2022-09-26T23:47:18.753Z,1.70
2022-09-26T23:49:46.394Z,2.30
2022-09-26T23:52:15.577Z,1.80
2022-09-26T23:54:43.558Z,1.95
2022-09-26T23:57:11.374Z,1.80
2022-09-26T23:59:39.103Z,1.60
